createdAt,value
2024-05-09T00:00:41.840Z,101162.05
2024-05-09T00:03:30.735Z,101161.94
2024-05-09T00:05:58.389Z,101159.06
2024-05-09T00:08:25.441Z,101152.45
2024-05-09T00:10:52.630Z,101152.39
2024-05-09T00:13:19.639Z,101152.44
2024-05-09T00:15:46.707Z,101155.77
2024-05-09T00:18:14.149Z,101153.19
2024-05-09T00:20:41.674Z,101153.48
2024-05-09T00:23:14.789Z,101153.60
2024-05-09T00:25:43.008Z,101154.33
2024-05-09T00:28:11.270Z,101157.27
2024-05-09T00:30:38.408Z,101161.65
2024-05-09T00:33:07.269Z,101164.46
2024-05-09T00:35:35.780Z,101159.56
2024-05-09T00:38:03.840Z,101160.30
2024-05-09T00:40:39.806Z,101158.20
2024-05-09T00:43:13.721Z,101156.83
2024-05-09T00:45:42.794Z,101153.88
2024-05-09T00:48:15.181Z,101151.27
2024-05-09T00:50:46.116Z,101148.19
2024-05-09T00:53:15.855Z,101148.05
2024-05-09T00:55:43.855Z,101147.06
2024-05-09T00:58:15.028Z,101146.69
2024-05-09T01:00:43.233Z,101141.59
2024-05-09T01:03:12.538Z,101141.45
2024-05-09T01:05:43.015Z,101142.05
2024-05-09T01:08:12.187Z,101138.30
2024-05-09T01:10:43.676Z,101131.77
2024-05-09T01:13:14.067Z,101130.34
2024-05-09T01:15:43.532Z,101132.94
2024-05-09T01:18:13.712Z,101136.33
2024-05-09T01:20:44.651Z,101134.89
2024-05-09T01:23:15.171Z,101135.02
2024-05-09T01:25:45.149Z,101135.15
2024-05-09T01:28:13.264Z,101138.08
2024-05-09T01:30:41.708Z,101138.17
2024-05-09T01:33:11.896Z,101139.48
2024-05-09T01:35:42.884Z,101136.80
2024-05-09T01:38:12.432Z,101134.00
2024-05-09T01:40:40.689Z,101136.71
2024-05-09T01:43:09.068Z,101134.41
2024-05-09T01:45:38.173Z,101137.25
2024-05-09T01:48:07.234Z,101134.75
2024-05-09T01:50:39.516Z,101137.26
2024-05-09T01:53:11.846Z,101138.92
2024-05-09T01:55:39.333Z,101139.77
2024-05-09T01:58:06.499Z,101143.11
2024-05-09T02:00:39.193Z,101145.31
2024-05-09T02:03:12.313Z,101145.91
2024-05-09T02:05:43.529Z,101144.14
2024-05-09T02:08:16.038Z,101151.04
2024-05-09T02:10:43.863Z,101148.02
2024-05-09T02:13:12.370Z,101148.38
2024-05-09T02:15:39.684Z,101148.38
2024-05-09T02:18:07.976Z,101144.56
2024-05-09T02:20:38.600Z,101148.56
2024-05-09T02:23:06.316Z,101149.17
2024-05-09T02:25:34.134Z,101151.61
2024-05-09T02:28:01.925Z,101151.86
2024-05-09T02:30:38.173Z,101156.20
2024-05-09T02:33:10.801Z,101154.96
2024-05-09T02:35:40.477Z,101153.98
2024-05-09T02:38:08.842Z,101156.88
2024-05-09T02:40:38.409Z,101152.98
2024-05-09T02:43:08.405Z,101151.14
2024-05-09T02:45:36.713Z,101145.92
2024-05-09T02:48:04.999Z,101148.12
2024-05-09T02:50:37.933Z,101150.09
2024-05-09T02:53:07.961Z,101151.40
2024-05-09T02:55:35.517Z,101152.73
2024-05-09T02:58:02.792Z,101153.02
2024-05-09T03:00:38.097Z,101160.14
2024-05-09T03:03:11.284Z,101157.13
2024-05-09T03:05:41.106Z,101154.60
2024-05-09T03:08:09.071Z,101161.92
2024-05-09T03:10:38.534Z,101165.67
2024-05-09T03:13:08.194Z,101173.18
2024-05-09T03:15:36.945Z,101170.97
2024-05-09T03:18:06.407Z,101176.50
2024-05-09T03:20:35.897Z,101173.62
2024-05-09T03:23:06.755Z,101170.59
2024-05-09T03:25:34.409Z,101170.81
2024-05-09T03:28:01.704Z,101167.00
2024-05-09T03:30:36.237Z,101167.49
2024-05-09T03:33:20.263Z,101171.39
2024-05-09T03:35:48.227Z,101177.56
2024-05-09T03:38:16.284Z,101174.94
2024-05-09T03:40:49.010Z,101174.55
2024-05-09T03:43:18.399Z,101175.38
2024-05-09T03:45:49.186Z,101176.97
2024-05-09T03:48:16.458Z,101177.56
2024-05-09T03:50:43.727Z,101180.55
2024-05-09T03:53:12.910Z,101179.29
2024-05-09T03:55:40.884Z,101187.80
2024-05-09T03:58:08.474Z,101186.95
2024-05-09T04:00:39.357Z,101191.47
2024-05-09T04:03:10.816Z,101193.20
2024-05-09T04:05:42.233Z,101189.38
2024-05-09T04:08:10.986Z,101191.55
2024-05-09T04:10:38.533Z,101187.27
2024-05-09T04:13:05.697Z,101189.88
2024-05-09T04:15:33.084Z,101193.01
2024-05-09T04:18:01.527Z,101189.29
2024-05-09T04:20:37.397Z,101191.02
2024-05-09T04:23:10.854Z,101192.90
2024-05-09T04:25:41.753Z,101193.52
2024-05-09T04:28:08.969Z,101199.67
2024-05-09T04:30:39.349Z,101199.15
2024-05-09T04:33:13.834Z,101199.95
2024-05-09T04:35:42.850Z,101197.92
2024-05-09T04:38:14.042Z,101199.96
2024-05-09T04:40:42.903Z,101194.84
2024-05-09T04:43:19.066Z,101196.39
2024-05-09T04:45:46.956Z,101192.82
2024-05-09T04:48:15.507Z,101196.73
2024-05-09T04:50:42.995Z,101198.05
2024-05-09T04:53:15.665Z,101195.69
2024-05-09T04:55:42.957Z,101202.19
2024-05-09T04:58:11.047Z,101202.61
2024-05-09T05:00:40.596Z,101200.38
2024-05-09T05:03:13.700Z,101202.64
2024-05-09T05:05:44.890Z,101199.84
2024-05-09T05:08:18.301Z,101195.67
2024-05-09T05:10:47.838Z,101193.64
2024-05-09T05:13:16.238Z,101193.33
2024-05-09T05:15:43.549Z,101195.88
2024-05-09T05:18:11.492Z,101188.77
2024-05-09T05:20:39.028Z,101194.18
2024-05-09T05:23:11.500Z,101192.86
2024-05-09T05:25:42.327Z,101192.98
2024-05-09T05:28:09.873Z,101188.95
2024-05-09T05:30:38.044Z,101188.11
2024-05-09T05:33:09.560Z,101182.56
2024-05-09T05:35:37.607Z,101188.05
2024-05-09T05:38:09.303Z,101184.29
2024-05-09T05:40:38.515Z,101180.55
2024-05-09T05:43:09.222Z,101180.23
2024-05-09T05:45:36.626Z,101180.77
2024-05-09T05:48:05.237Z,101178.73
2024-05-09T05:50:36.671Z,101182.02
2024-05-09T05:53:07.052Z,101182.00
2024-05-09T05:55:36.391Z,101178.47
2024-05-09T05:58:03.901Z,101179.33
2024-05-09T06:03:03.378Z,101185.11
2024-05-09T06:05:32.893Z,101188.95
2024-05-09T06:08:04.065Z,101191.22
2024-05-09T06:10:37.994Z,101191.93
2024-05-09T06:13:11.971Z,101191.20
2024-05-09T06:15:39.798Z,101191.94
2024-05-09T06:18:09.267Z,101193.52
2024-05-09T06:20:38.788Z,101201.26
2024-05-09T06:23:06.977Z,101202.54
2024-05-09T06:25:35.820Z,101201.27
2024-05-09T06:28:03.622Z,101203.31
2024-05-09T06:30:38.358Z,101199.77
2024-05-09T06:33:10.418Z,101199.60
2024-05-09T06:35:39.108Z,101203.95
2024-05-09T06:38:08.133Z,101198.80
2024-05-09T06:40:38.529Z,101194.80
2024-05-09T06:43:13.706Z,101196.73
2024-05-09T06:45:41.098Z,101194.86
2024-05-09T06:48:09.262Z,101195.36
2024-05-09T06:50:38.513Z,101191.88
2024-05-09T06:53:07.744Z,101194.30
2024-05-09T06:55:36.345Z,101190.50
2024-05-09T06:58:05.950Z,101192.98
2024-05-09T07:00:38.843Z,101193.46
2024-05-09T07:03:16.050Z,101191.96
2024-05-09T07:05:47.343Z,101194.92
2024-05-09T07:08:16.230Z,101192.67
2024-05-09T07:10:44.053Z,101189.65
2024-05-09T07:13:12.746Z,101193.61
2024-05-09T07:15:41.201Z,101196.30
2024-05-09T07:18:14.976Z,101192.80
2024-05-09T07:20:42.432Z,101189.50
2024-05-09T07:23:11.829Z,101188.82
2024-05-09T07:25:40.656Z,101187.93
2024-05-09T07:28:15.683Z,101185.34
2024-05-09T07:30:43.209Z,101184.67
2024-05-09T07:33:18.389Z,101187.36
2024-05-09T07:35:46.169Z,101186.86
2024-05-09T07:38:13.522Z,101187.34
2024-05-09T07:40:41.016Z,101184.70
2024-05-09T07:43:12.313Z,101188.20
2024-05-09T07:45:48.817Z,101182.94
2024-05-09T07:52:38.376Z,101180.42
2024-05-09T07:53:46.322Z,101181.83
2024-05-09T07:56:17.768Z,101175.12
2024-05-09T07:58:45.408Z,101176.84
2024-05-09T08:01:12.675Z,101171.27
2024-05-09T08:03:40.004Z,101170.53
2024-05-09T08:06:07.178Z,101167.30
2024-05-09T08:08:34.194Z,101165.77
2024-05-09T08:11:02.761Z,101165.48
2024-05-09T08:13:29.907Z,101167.19
2024-05-09T08:15:57.204Z,101166.26
2024-05-09T08:18:25.543Z,101164.05
2024-05-09T08:20:52.622Z,101169.67
2024-05-09T08:23:19.770Z,101170.07
2024-05-09T08:25:47.296Z,101169.99
2024-05-09T08:28:14.816Z,101171.52
2024-05-09T08:30:42.393Z,101169.86
2024-05-09T08:33:09.653Z,101166.48
2024-05-09T08:35:36.867Z,101163.86
2024-05-09T08:38:06.313Z,101168.45
2024-05-09T08:40:36.979Z,101167.66
2024-05-09T08:43:10.438Z,101173.19
2024-05-09T08:45:41.466Z,101169.17
2024-05-09T08:48:11.119Z,101166.17
2024-05-09T08:50:40.795Z,101164.11
2024-05-09T08:53:08.357Z,101162.39
2024-05-09T08:55:40.450Z,101156.28
2024-05-09T08:58:16.198Z,101160.75
2024-05-09T09:00:45.581Z,101156.77
2024-05-09T09:03:20.251Z,101158.26
2024-05-09T09:06:06.609Z,101155.61
2024-05-09T09:08:36.565Z,101154.75
2024-05-09T09:11:04.006Z,101161.42
2024-05-09T09:13:31.418Z,101163.81
2024-05-09T09:15:59.575Z,101160.02
2024-05-09T09:18:28.647Z,101159.33
2024-05-09T09:20:56.201Z,101164.48
2024-05-09T09:23:23.352Z,101166.53
2024-05-09T09:25:51.251Z,101163.02
2024-05-09T09:28:22.102Z,101162.92
2024-05-09T09:30:49.135Z,101157.48
2024-05-09T09:33:16.862Z,101163.10
2024-05-09T09:35:44.056Z,101159.73
2024-05-09T09:38:15.645Z,101159.70
2024-05-09T09:40:49.405Z,101158.75
2024-05-09T09:43:22.000Z,101157.63
2024-05-09T09:45:51.311Z,101155.66
2024-05-09T09:48:19.310Z,101153.82
2024-05-09T09:50:49.115Z,101147.20
2024-05-09T09:53:16.417Z,101145.38
2024-05-09T09:55:43.601Z,101140.75
2024-05-09T09:58:14.498Z,101150.48
2024-05-09T10:00:42.477Z,101157.23
2024-05-09T10:03:09.847Z,101154.00
2024-05-09T10:05:38.341Z,101149.85
2024-05-09T10:08:09.215Z,101148.94
2024-05-09T10:10:36.576Z,101145.90
2024-05-09T10:13:08.595Z,101138.60
2024-05-09T10:15:53.056Z,101141.52
2024-05-09T10:18:24.763Z,101139.34
2024-05-09T10:20:53.869Z,101147.20
2024-05-09T10:23:28.343Z,101145.52
2024-05-09T10:26:03.974Z,101137.39
2024-05-09T10:28:34.325Z,101136.33
2024-05-09T10:31:12.358Z,101133.55
2024-05-09T10:33:49.092Z,101135.77
2024-05-09T10:36:24.646Z,101137.59
2024-05-09T10:38:53.246Z,101128.86
2024-05-09T10:41:22.549Z,101132.37
2024-05-09T10:43:50.830Z,101136.21
2024-05-09T10:46:18.265Z,101130.76
2024-05-09T10:48:46.742Z,101126.58
2024-05-09T10:51:14.107Z,101126.20
2024-05-09T10:53:46.239Z,101122.16
2024-05-09T10:56:14.064Z,101120.20
2024-05-09T10:58:41.756Z,101120.73
2024-05-09T11:01:09.348Z,101112.49
2024-05-09T11:03:37.522Z,101106.06
2024-05-09T11:06:05.925Z,101109.34
2024-05-09T11:08:34.369Z,101111.52
2024-05-09T11:11:05.970Z,101113.12
2024-05-09T11:13:35.659Z,101111.53
2024-05-09T11:16:07.588Z,101113.23
2024-05-09T11:18:38.188Z,101109.79
2024-05-09T11:21:13.371Z,101108.01
2024-05-09T11:23:41.204Z,101110.13
2024-05-09T11:26:09.839Z,101103.70
2024-05-09T11:28:36.909Z,101097.18
2024-05-09T11:31:08.723Z,101103.84
2024-05-09T11:33:41.559Z,101105.08
2024-05-09T11:36:09.739Z,101094.65
2024-05-09T11:38:36.886Z,101094.53
2024-05-09T11:41:04.974Z,101095.55
2024-05-09T11:43:35.066Z,101092.64
2024-05-09T11:46:02.672Z,101093.40
2024-05-09T11:48:30.880Z,101090.27
2024-05-09T11:50:58.210Z,101093.71
2024-05-09T11:53:25.239Z,101092.76
2024-05-09T11:55:52.630Z,101087.83
2024-05-09T11:58:21.881Z,101090.92
2024-05-09T12:00:49.114Z,101087.79
2024-05-09T12:03:16.179Z,101088.04
2024-05-09T12:05:43.559Z,101084.50
2024-05-09T12:08:11.695Z,101083.81
2024-05-09T12:10:38.840Z,101082.64
2024-05-09T12:13:07.284Z,101083.58
2024-05-09T12:15:37.757Z,101083.73
2024-05-09T12:18:06.418Z,101082.96
2024-05-09T12:20:37.877Z,101081.84
2024-05-09T12:23:10.131Z,101075.67
2024-05-09T12:25:40.315Z,101066.97
2024-05-09T12:28:08.288Z,101060.14
2024-05-09T12:30:40.526Z,101056.75
2024-05-09T12:33:12.928Z,101060.52
2024-05-09T12:35:44.083Z,101062.20
2024-05-09T12:38:14.223Z,101063.00
2024-05-09T12:40:42.172Z,101059.33
2024-05-09T12:43:10.430Z,101060.66
2024-05-09T12:45:39.387Z,101056.78
2024-05-09T12:48:10.339Z,101053.85
2024-05-09T12:50:40.546Z,101052.00
2024-05-09T12:53:07.893Z,101050.09
2024-05-09T12:55:44.073Z,101044.16
2024-05-09T12:58:24.570Z,101042.48
2024-05-09T13:00:52.901Z,101044.26
2024-05-09T13:03:24.314Z,101040.52
2024-05-09T13:05:51.926Z,101037.99
2024-05-09T13:08:21.959Z,101037.02
2024-05-09T13:10:49.657Z,101033.79
2024-05-09T13:13:17.171Z,101028.06
2024-05-09T13:15:44.819Z,101024.27
2024-05-09T13:18:11.978Z,101021.96
2024-05-09T13:20:39.022Z,101018.50
2024-05-09T13:23:07.898Z,101011.33
2024-05-09T13:25:36.930Z,101013.54
2024-05-09T13:28:06.092Z,101011.69
2024-05-09T13:30:39.693Z,101008.36
2024-05-09T13:33:11.777Z,101015.35
2024-05-09T13:35:47.202Z,101007.89
2024-05-09T13:38:19.522Z,101004.77
2024-05-09T13:40:47.616Z,101000.11
2024-05-09T13:43:15.426Z,101000.88
2024-05-09T13:45:43.004Z,100997.40
2024-05-09T13:48:10.652Z,100994.06
2024-05-09T13:50:38.437Z,100991.64
2024-05-09T13:53:06.913Z,100988.36
2024-05-09T13:55:39.217Z,100988.63
2024-05-09T13:58:07.327Z,100982.06
2024-05-09T14:03:05.323Z,100982.09
2024-05-09T14:05:32.679Z,100978.42
2024-05-09T14:08:00.067Z,100975.84
2024-05-09T14:12:55.766Z,100971.96
2024-05-09T14:15:22.952Z,100966.23
2024-05-09T14:17:50.286Z,100965.04
2024-05-09T14:20:28.159Z,100962.90
2024-05-09T14:22:59.779Z,100960.77
2024-05-09T14:25:34.624Z,100954.83
2024-05-09T14:28:03.370Z,100953.69
2024-05-09T14:30:36.490Z,100947.48
2024-05-09T14:33:07.110Z,100948.43
2024-05-09T14:35:36.755Z,100947.79
2024-05-09T14:38:05.371Z,100943.60
2024-05-09T14:40:40.597Z,100937.95
2024-05-09T14:43:13.495Z,100937.52
2024-05-09T14:45:45.116Z,100934.59
2024-05-09T14:48:14.454Z,100931.91
2024-05-09T14:50:42.609Z,100930.13
2024-05-09T14:53:13.851Z,100922.19
2024-05-09T14:55:42.952Z,100921.92
2024-05-09T14:58:13.991Z,100919.61
2024-05-09T15:00:45.997Z,100919.10
2024-05-09T15:03:19.100Z,100913.98
2024-05-09T15:05:56.293Z,100911.89
2024-05-09T15:08:23.678Z,100913.27
2024-05-09T15:10:51.318Z,100912.22
2024-05-09T15:13:20.515Z,100910.80
2024-05-09T15:15:48.252Z,100911.21
2024-05-09T15:18:16.144Z,100908.81
2024-05-09T15:20:46.251Z,100908.63
2024-05-09T15:23:22.677Z,100902.16
2024-05-09T15:25:49.903Z,100907.89
2024-05-09T15:28:20.215Z,100902.52
2024-05-09T15:30:50.873Z,100895.76
2024-05-09T15:33:20.816Z,100895.91
2024-05-09T15:35:50.698Z,100889.55
2024-05-09T15:38:20.915Z,100887.92
2024-05-09T15:40:48.475Z,100886.80
2024-05-09T15:43:16.251Z,100887.17
2024-05-09T15:45:43.760Z,100883.71
2024-05-09T15:48:11.522Z,100882.59
2024-05-09T15:50:41.553Z,100879.31
2024-05-09T15:53:19.963Z,100881.02
2024-05-09T15:55:47.338Z,100873.25
2024-05-09T15:58:14.960Z,100873.48
2024-05-09T16:01:01.710Z,100867.32
2024-05-09T16:03:29.369Z,100860.54
2024-05-09T16:06:13.196Z,100862.05
2024-05-09T16:08:46.030Z,100858.96
2024-05-09T16:11:16.726Z,100860.45
2024-05-09T16:13:44.586Z,100858.77
2024-05-09T16:16:39.480Z,100857.44
2024-05-09T16:19:08.946Z,100852.77
2024-05-09T16:21:39.547Z,100855.58
2024-05-09T16:24:34.726Z,100860.25
2024-05-09T16:27:07.255Z,100861.59
2024-05-09T16:29:40.452Z,100857.02
2024-05-09T16:32:08.319Z,100856.21
2024-05-09T16:34:35.645Z,100857.07
2024-05-09T16:37:05.761Z,100854.59
2024-05-09T16:39:41.552Z,100855.08
2024-05-09T16:42:08.882Z,100856.14
2024-05-09T16:44:56.453Z,100852.81
2024-05-09T16:47:27.491Z,100845.29
2024-05-09T16:49:54.777Z,100849.73
2024-05-09T16:52:38.512Z,100848.39
2024-05-09T16:55:09.211Z,100845.58
2024-05-09T16:58:18.376Z,100849.75
2024-05-09T17:00:45.921Z,100847.43
2024-05-09T17:03:31.494Z,100848.45
2024-05-09T17:06:30.516Z,100850.11
2024-05-09T17:09:08.395Z,100851.00
2024-05-09T17:11:49.264Z,100850.23
2024-05-09T17:14:16.888Z,100853.38
2024-05-09T17:16:46.628Z,100852.48
2024-05-09T17:19:14.400Z,100851.45
2024-05-09T17:21:41.854Z,100848.40
2024-05-09T17:24:09.396Z,100848.45
2024-05-09T17:26:36.888Z,100843.09
2024-05-09T17:29:31.466Z,100841.49
2024-05-09T17:32:09.900Z,100838.26
2024-05-09T17:34:37.236Z,100836.10
2024-05-09T17:37:18.728Z,100835.16
2024-05-09T17:39:46.195Z,100836.41
2024-05-09T17:42:13.723Z,100834.05
2024-05-09T17:44:41.039Z,100836.14
2024-05-09T17:47:16.148Z,100835.52
2024-05-09T17:50:20.964Z,100835.62
2024-05-09T17:52:54.572Z,100829.88
2024-05-09T17:55:22.098Z,100826.88
2024-05-09T17:57:49.612Z,100824.84
2024-05-09T18:00:24.752Z,100826.32
2024-05-09T18:03:24.645Z,100828.40
2024-05-09T18:05:52.086Z,100825.80
2024-05-09T18:08:19.305Z,100823.47
2024-05-09T18:10:46.439Z,100823.48
2024-05-09T18:13:16.035Z,100830.36
2024-05-09T18:15:44.241Z,100827.72
2024-05-09T18:18:12.046Z,100826.12
2024-05-09T18:20:44.018Z,100828.27
2024-05-09T18:23:16.091Z,100828.42
2024-05-09T18:25:45.642Z,100833.26
2024-05-09T18:28:13.005Z,100834.94
2024-05-09T18:30:40.500Z,100837.14
2024-05-09T18:33:09.508Z,100839.30
2024-05-09T18:35:37.073Z,100843.55
2024-05-09T18:38:04.352Z,100846.95
2024-05-09T18:40:35.350Z,100848.75
2024-05-09T18:43:06.886Z,100853.25
2024-05-09T18:45:37.513Z,100859.05
2024-05-09T18:48:07.955Z,100863.14
2024-05-09T18:50:39.079Z,100863.20
2024-05-09T18:53:11.406Z,100861.29
2024-05-09T18:55:41.495Z,100863.00
2024-05-09T18:58:09.202Z,100866.20
2024-05-09T19:00:39.265Z,100870.22
2024-05-09T19:03:11.367Z,100877.48
2024-05-09T19:05:45.220Z,100878.55
2024-05-09T19:08:14.158Z,100882.13
2024-05-09T19:10:41.445Z,100887.00
2024-05-09T19:13:12.112Z,100885.07
2024-05-09T19:15:42.365Z,100886.98
2024-05-09T19:18:14.467Z,100893.46
2024-05-09T19:20:43.072Z,100895.52
2024-05-09T19:23:10.948Z,100893.94
2024-05-09T19:25:38.189Z,100892.27
2024-05-09T19:28:05.964Z,100894.00
2024-05-09T19:30:38.980Z,100890.86
2024-05-09T19:33:12.089Z,100889.82
2024-05-09T19:35:41.465Z,100890.92
2024-05-09T19:38:08.534Z,100892.91
2024-05-09T19:40:36.180Z,100895.10
2024-05-09T19:43:04.344Z,100894.85
2024-05-09T19:45:32.601Z,100899.34
2024-05-09T19:48:00.532Z,100896.61
2024-05-09T19:50:36.903Z,100899.78
2024-05-09T19:53:10.388Z,100902.11
2024-05-09T19:55:38.363Z,100901.96
2024-05-09T19:58:07.371Z,100906.00
2024-05-09T20:00:38.837Z,100902.95
2024-05-09T20:03:09.027Z,100901.69
2024-05-09T20:05:37.949Z,100906.55
2024-05-09T20:08:06.507Z,100908.06
2024-05-09T20:10:35.545Z,100912.62
2024-05-09T20:13:06.034Z,100914.13
2024-05-09T20:15:35.866Z,100910.44
2024-05-09T20:18:04.060Z,100912.30
2024-05-09T20:20:37.757Z,100917.22
2024-05-09T20:23:16.602Z,100916.02
2024-05-09T20:25:43.850Z,100914.50
2024-05-09T20:28:11.305Z,100915.78
2024-05-09T20:30:38.887Z,100915.20
2024-05-09T20:33:07.463Z,100914.00
2024-05-09T20:35:36.005Z,100909.84
2024-05-09T20:38:04.120Z,100908.67
2024-05-09T20:40:36.736Z,100911.05
2024-05-09T20:43:09.282Z,100910.15
2024-05-09T20:45:40.607Z,100911.00
2024-05-09T20:48:11.168Z,100907.27
2024-05-09T20:50:42.068Z,100905.95
2024-05-09T20:53:11.642Z,100902.71
2024-05-09T20:55:39.554Z,100904.84
2024-05-09T20:58:07.127Z,100909.58
2024-05-09T21:00:39.633Z,100908.84
2024-05-09T21:03:10.540Z,100908.23
2024-05-09T21:05:38.390Z,100909.09
2024-05-09T21:08:08.823Z,100912.14
2024-05-09T21:10:36.699Z,100908.27
2024-05-09T21:13:05.490Z,100906.98
2024-05-09T21:15:34.018Z,100914.77
2024-05-09T21:18:01.197Z,100911.83
2024-05-09T21:20:32.065Z,100915.77
2024-05-09T21:23:00.656Z,100909.52
2024-05-09T21:25:27.868Z,100908.04
2024-05-09T21:27:55.524Z,100908.09
2024-05-09T21:30:32.183Z,100908.21
2024-05-09T21:33:09.640Z,100905.72
2024-05-09T21:35:38.220Z,100906.31
2024-05-09T21:38:06.282Z,100910.54
2024-05-09T21:40:35.593Z,100907.74
2024-05-09T21:43:05.720Z,100909.20
2024-05-09T21:45:33.767Z,100907.98
2024-05-09T21:48:05.601Z,100906.30
2024-05-09T21:50:39.618Z,100908.84
2024-05-09T21:53:10.863Z,100909.57
2024-05-09T21:55:38.033Z,100907.20
2024-05-09T21:58:05.250Z,100910.73
2024-05-09T22:00:37.716Z,100908.83
2024-05-09T22:03:06.889Z,100908.75
2024-05-09T22:05:35.414Z,100908.93
2024-05-09T22:08:03.147Z,100908.64
2024-05-09T22:10:34.572Z,100911.77
2024-05-09T22:13:05.306Z,100911.47
2024-05-09T22:15:39.459Z,100914.48
2024-05-09T22:18:09.864Z,100911.18
2024-05-09T22:20:43.064Z,100907.16
2024-05-09T22:23:11.066Z,100906.32
2024-05-09T22:25:38.852Z,100903.02
2024-05-09T22:28:06.750Z,100903.58
2024-05-09T22:30:37.909Z,100907.50
2024-05-09T22:33:07.872Z,100907.62
2024-05-09T22:35:35.250Z,100909.02
2024-05-09T22:38:02.946Z,100908.95
2024-05-09T22:40:38.938Z,100910.36
2024-05-09T22:43:21.742Z,100909.62
2024-05-09T22:45:51.964Z,100909.25
2024-05-09T22:48:19.523Z,100911.38
2024-05-09T22:50:46.686Z,100912.21
2024-05-09T22:53:14.214Z,100917.09
2024-05-09T22:55:41.751Z,100916.95
2024-05-09T22:58:08.888Z,100916.41
2024-05-09T23:00:36.067Z,100914.70
2024-05-09T23:03:03.487Z,100911.80
2024-05-09T23:05:33.819Z,100910.06
2024-05-09T23:08:02.034Z,100910.83
2024-05-09T23:10:35.531Z,100906.77
2024-05-09T23:13:08.217Z,100904.64
2024-05-09T23:15:37.655Z,100900.55
2024-05-09T23:18:05.665Z,100902.05
2024-05-09T23:20:37.919Z,100901.91
2024-05-09T23:23:08.325Z,100900.33
2024-05-09T23:25:36.079Z,100898.85
2024-05-09T23:28:03.558Z,100899.89
2024-05-09T23:30:37.452Z,100900.39
2024-05-09T23:33:11.315Z,100900.20
2024-05-09T23:35:48.267Z,100897.90
2024-05-09T23:38:15.354Z,100895.31
2024-05-09T23:40:43.284Z,100896.67
2024-05-09T23:43:11.856Z,100893.81
2024-05-09T23:45:41.517Z,100894.48
2024-05-09T23:48:09.606Z,100894.46
2024-05-09T23:50:38.741Z,100891.12
2024-05-09T23:53:08.827Z,100889.24
2024-05-09T23:55:37.502Z,100882.53
2024-05-09T23:58:05.791Z,100883.13
